Time;durP1;ratioP1;P1;durP2;ratioP2;P2;SDS_P1;SDS_P2;PMS_P1;PMS_P2;Temp;Humidity;BMP_temperature;BMP_pressure;BME280_temperature;BME280_humidity;BME280_pressure;Samples;Min_cycle;Max_cycle;Signal;HPM_P1;HPM_P2
2022/05/09 00:00:27;;;;;;;18.85;5.85;;;7.40;99.90;;;;;;4724875;30;20052;-65
2022/05/09 00:02:53;;;;;;;27.27;6.85;;;7.50;99.90;;;;;;4754867;30;20055;-65
2022/05/09 00:05:21;;;;;;;25.48;6.30;;;7.50;99.90;;;;;;4738812;30;20056;-65
2022/05/09 00:07:48;;;;;;;27.23;6.20;;;;;;;;;;4754751;30;20060;-65
2022/05/09 00:10:16;;;;;;;18.00;5.85;;;7.30;99.90;;;;;;4754504;30;20098;-65
2022/05/09 00:12:41;;;;;;;25.52;6.57;;;7.10;99.90;;;;;;4754762;30;20060;-65
2022/05/09 00:15:08;;;;;;;24.83;6.85;;;7.30;99.90;;;;;;4755088;30;20555;-65
2022/05/09 00:17:34;;;;;;;25.67;6.85;;;;;;;;;;4754894;30;20063;-65
2022/05/09 00:20:00;;;;;;;20.98;6.18;;;7.20;99.90;;;;;;4754443;30;20056;-65
2022/05/09 00:22:26;;;;;;;19.33;6.00;;;;;;;;;;4754399;30;20054;-65
2022/05/09 00:24:52;;;;;;;27.00;6.38;;;;;;;;;;4754462;30;20113;-65
2022/05/09 00:27:17;;;;;;;23.48;6.00;;;7.50;99.90;;;;;;4753418;30;20056;-65
2022/05/09 00:29:43;;;;;;;19.45;6.50;;;7.20;99.90;;;;;;4754591;30;20052;-65
2022/05/09 00:32:09;;;;;;;27.20;6.57;;;7.90;99.90;;;;;;4754513;30;20460;-65
2022/05/09 00:34:37;;;;;;;22.48;6.40;;;;;;;;;;4754303;30;20056;-65
2022/05/09 00:37:04;;;;;;;24.63;7.18;;;7.30;99.90;;;;;;4754520;30;20067;-65
2022/05/09 00:39:30;;;;;;;22.50;6.40;;;7.40;99.90;;;;;;4754249;30;20082;-65
2022/05/09 00:42:10;;;;;;;27.48;6.80;;;7.10;99.90;;;;;;4754269;30;20063;-66
2022/05/09 00:44:36;;;;;;;25.80;7.15;;;7.10;99.90;;;;;;4754227;30;20059;-65
2022/05/09 00:47:02;;;;;;;22.45;6.60;;;;;;;;;;4753980;30;20131;-65
2022/05/09 00:49:33;;;;;;;30.38;7.15;;;7.60;99.90;;;;;;4754365;30;20048;-65
2022/05/09 00:52:07;;;;;;;26.27;6.43;;;7.30;99.90;;;;;;4754228;30;20061;-65
2022/05/09 00:54:47;;;;;;;24.35;5.85;;;7.40;99.90;;;;;;4752892;30;20527;-65
2022/05/09 00:57:27;;;;;;;24.35;6.50;;;7.90;99.90;;;;;;4753966;30;20135;-65
2022/05/09 00:59:58;;;;;;;22.15;6.43;;;7.40;99.90;;;;;;4754822;30;20063;-65
2022/05/09 01:02:25;;;;;;;21.48;6.28;;;7.40;99.90;;;;;;4762471;30;20052;-65
2022/05/09 01:04:53;;;;;;;26.95;6.78;;;7.40;99.90;;;;;;4738120;30;20063;-65
2022/05/09 01:07:20;;;;;;;29.02;6.93;;;7.30;99.90;;;;;;4753854;30;20119;-66
2022/05/09 01:09:46;;;;;;;23.77;6.82;;;;;;;;;;4759907;30;20059;-66
2022/05/09 01:12:16;;;;;;;26.23;6.43;;;7.30;99.90;;;;;;4770260;30;20090;-66
2022/05/09 01:14:42;;;;;;;27.58;6.78;;;7.40;99.90;;;;;;4771650;30;20052;-66
2022/05/09 01:17:09;;;;;;;26.55;7.20;;;7.20;99.90;;;;;;4771585;30;20058;-66
2022/05/09 01:19:39;;;;;;;30.33;7.15;;;7.20;99.90;;;;;;4769630;30;20054;-65
2022/05/09 01:22:19;;;;;;;30.52;7.25;;;7.10;99.90;;;;;;4771356;30;20058;-66
2022/05/09 01:24:44;;;;;;;27.42;7.50;;;7.10;99.90;;;;;;4771484;30;20577;-66
2022/05/09 01:27:10;;;;;;;26.88;7.28;;;7.10;99.90;;;;;;4771319;30;20055;-65
2022/05/09 01:30:02;;;;;;;24.13;7.32;;;7.20;99.90;;;;;;4771595;30;20098;-65
2022/05/09 01:32:35;;;;;;;31.83;7.82;;;7.10;99.90;;;;;;4755356;30;20056;-65
2022/05/09 01:35:17;;;;;;;29.17;7.45;;;7.00;99.90;;;;;;4771145;30;20059;-66
2022/05/09 01:37:49;;;;;;;27.90;7.78;;;7.10;99.90;;;;;;4771291;30;20397;-66
2022/05/09 01:40:15;;;;;;;25.38;7.20;;;6.90;99.90;;;;;;4755073;30;20082;-66
2022/05/09 01:42:42;;;;;;;23.33;6.88;;;6.90;99.90;;;;;;4771087;30;20492;-66
2022/05/09 01:45:09;;;;;;;20.25;7.07;;;7.00;99.90;;;;;;4771017;30;20047;-66
2022/05/09 01:50:19;;;;;;;28.42;7.78;;;7.00;99.90;;;;;;4771214;30;20054;-66
2022/05/09 01:52:46;;;;;;;26.30;7.47;;;6.70;99.90;;;;;;4771004;30;20055;-66
2022/05/09 01:55:11;;;;;;;23.88;8.02;;;6.70;99.90;;;;;;4771234;30;20123;-66
2022/05/09 01:57:37;;;;;;;29.30;7.95;;;;;;;;;;4770921;30;20591;-65
2022/05/09 02:00:06;;;;;;;26.55;7.97;;;7.10;99.90;;;;;;4770844;30;20150;-65
2022/05/09 02:02:32;;;;;;;24.38;7.80;;;7.00;99.90;;;;;;4770692;30;20139;-65
2022/05/09 02:04:57;;;;;;;24.75;7.72;;;6.90;99.90;;;;;;4770985;30;20142;-65
2022/05/09 02:07:24;;;;;;;23.55;7.75;;;6.70;99.90;;;;;;4770570;30;20074;-65
2022/05/09 02:09:50;;;;;;;25.98;7.88;;;6.60;99.90;;;;;;4774851;30;20117;-66
2022/05/09 02:12:18;;;;;;;28.25;7.72;;;6.70;99.90;;;;;;4788513;30;20051;-66
2022/05/09 02:14:46;;;;;;;25.42;7.80;;;6.80;99.90;;;;;;4788765;30;20123;-66
2022/05/09 02:17:12;;;;;;;26.23;8.00;;;6.80;99.90;;;;;;4788374;30;20557;-66
2022/05/09 02:19:39;;;;;;;33.28;8.07;;;6.70;99.90;;;;;;4787277;30;20206;-65
2022/05/09 02:22:05;;;;;;;24.05;8.15;;;6.40;99.90;;;;;;4772576;30;20058;-65
2022/05/09 02:24:31;;;;;;;24.58;7.75;;;6.70;99.90;;;;;;4788490;30;20090;-65
2022/05/09 02:26:57;;;;;;;27.27;8.30;;;6.80;99.90;;;;;;4788169;30;20091;-66
2022/05/09 02:29:24;;;;;;;26.10;8.50;;;6.80;99.90;;;;;;4788397;30;20055;-66
2022/05/09 02:31:50;;;;;;;26.30;8.00;;;;;;;;;;4788157;30;20121;-66
2022/05/09 02:34:17;;;;;;;19.13;7.45;;;6.30;99.90;;;;;;4788333;30;20055;-66
2022/05/09 02:36:42;;;;;;;19.52;6.80;;;6.60;99.90;;;;;;4788141;30;20062;-65
2022/05/09 02:39:08;;;;;;;23.02;7.38;;;7.20;99.90;;;;;;4788076;30;20047;-65
2022/05/09 02:41:34;;;;;;;18.67;6.57;;;6.70;99.90;;;;;;4787988;30;20059;-66
2022/05/09 02:44:00;;;;;;;20.73;6.38;;;6.10;99.90;;;;;;4788072;30;20055;-65
2022/05/09 02:46:26;;;;;;;15.68;6.45;;;6.60;99.90;;;;;;4787946;30;20058;-65
2022/05/09 02:48:52;;;;;;;19.02;6.38;;;;;;;;;;4788462;30;20128;-64
2022/05/09 02:51:18;;;;;;;25.75;7.03;;;6.50;99.90;;;;;;4787378;30;20051;-64
2022/05/09 02:53:44;;;;;;;17.13;7.10;;;6.00;99.90;;;;;;4772195;30;20112;-64
2022/05/09 02:56:10;;;;;;;19.23;7.07;;;;;;;;;;4787926;30;20058;-64
2022/05/09 02:58:36;;;;;;;20.65;6.90;;;6.20;99.90;;;;;;4788000;30;20054;-65
2022/05/09 03:01:03;;;;;;;24.45;7.47;;;5.90;99.90;;;;;;4787928;30;20051;-64
2022/05/09 03:06:14;;;;;;;15.52;7.10;;;;;;;;;;4787887;30;20058;-64
2022/05/09 03:08:41;;;;;;;22.55;7.55;;;5.90;99.90;;;;;;4788025;30;20055;-64
2022/05/09 03:11:07;;;;;;;24.40;7.97;;;5.50;99.90;;;;;;4776695;30;20058;-65
2022/05/09 03:13:34;;;;;;;19.45;7.15;;;5.80;99.90;;;;;;4754014;30;20087;-64
2022/05/09 03:16:01;;;;;;;24.45;7.10;;;5.30;99.90;;;;;;4769984;30;20568;-67
2022/05/09 03:18:27;;;;;;;22.42;7.18;;;5.70;99.90;;;;;;4754131;30;20059;-64
2022/05/09 03:20:53;;;;;;;23.48;7.68;;;5.50;99.90;;;;;;4769980;30;20063;-65
2022/05/09 03:23:19;;;;;;;19.35;6.93;;;5.60;99.90;;;;;;4770232;30;20132;-64
2022/05/09 03:25:45;;;;;;;16.88;6.72;;;5.30;99.90;;;;;;4769969;30;20143;-64
2022/05/09 03:28:19;;;;;;;18.92;6.93;;;5.60;99.90;;;;;;4769963;30;20067;-64
2022/05/09 03:30:47;;;;;;;18.95;7.15;;;5.60;99.90;;;;;;4770096;30;20052;-64
2022/05/09 03:33:14;;;;;;;25.67;7.18;;;5.90;99.90;;;;;;4769774;30;20054;-64
2022/05/09 03:35:39;;;;;;;18.88;7.00;;;5.70;99.90;;;;;;4769721;30;20060;-64
2022/05/09 03:38:05;;;;;;;15.77;6.68;;;5.40;99.90;;;;;;4769731;30;20397;-64
2022/05/09 03:40:31;;;;;;;19.90;7.57;;;5.40;99.90;;;;;;4770013;30;20485;-64
2022/05/09 03:42:59;;;;;;;23.02;7.70;;;5.30;99.90;;;;;;4769821;30;20052;-65
2022/05/09 03:45:25;;;;;;;27.77;8.27;;;5.40;99.90;;;;;;4769779;30;20091;-64
2022/05/09 03:47:55;;;;;;;20.85;7.30;;;5.30;99.90;;;;;;4769622;30;20147;-64
2022/05/09 03:50:21;;;;;;;23.23;7.40;;;5.30;99.90;;;;;;4753564;30;20142;-64
2022/05/09 03:52:47;;;;;;;17.55;8.20;;;5.20;99.90;;;;;;4769673;30;20469;-64
2022/05/09 03:55:13;;;;;;;19.15;7.95;;;6.00;99.90;;;;;;4753783;30;20083;-65
2022/05/09 03:57:51;;;;;;;21.63;7.68;;;5.30;99.90;;;;;;4769647;30;20059;-64
2022/05/09 04:00:19;;;;;;;19.40;7.50;;;5.30;99.90;;;;;;4753522;30;20056;-63
2022/05/09 04:02:46;;;;;;;25.17;8.32;;;5.40;99.90;;;;;;4771364;30;20442;-63
2022/05/09 04:05:17;;;;;;;23.40;7.70;;;5.40;99.90;;;;;;4773097;30;20459;-64
2022/05/09 04:07:48;;;;;;;21.85;7.88;;;5.30;99.90;;;;;;4772729;30;20493;-64
2022/05/09 04:10:19;;;;;;;21.70;7.72;;;5.30;99.90;;;;;;4772588;30;20447;-64
2022/05/09 04:12:47;;;;;;;19.17;7.50;;;5.50;99.90;;;;;;4756554;30;20058;-64
2022/05/09 04:17:57;;;;;;;27.40;8.60;;;5.60;99.90;;;;;;4772487;30;20067;-64
2022/05/09 04:20:25;;;;;;;19.67;7.78;;;5.70;99.90;;;;;;4772430;30;20055;-64
2022/05/09 04:22:51;;;;;;;25.58;7.80;;;5.60;99.90;;;;;;4772432;30;20075;-64
2022/05/09 04:25:22;;;;;;;19.92;7.63;;;;;;;;;;4772702;30;20440;-63
2022/05/09 04:27:47;;;;;;;23.15;8.25;;;5.50;99.90;;;;;;4772087;30;20452;-65
2022/05/09 04:30:14;;;;;;;19.60;8.07;;;5.60;99.90;;;;;;4755807;30;20055;-64
2022/05/09 04:32:40;;;;;;;23.00;8.90;;;;;;;;;;4754567;30;20052;-64
2022/05/09 04:35:17;;;;;;;22.85;8.48;;;5.70;99.90;;;;;;4754457;30;20065;-64
2022/05/09 04:37:47;;;;;;;22.38;8.75;;;6.10;99.90;;;;;;4738463;30;20552;-64
2022/05/09 04:40:18;;;;;;;22.38;7.97;;;6.60;99.90;;;;;;4754179;30;20064;-65
2022/05/09 04:42:44;;;;;;;23.38;7.97;;;6.70;99.90;;;;;;4754233;30;20136;-64
2022/05/09 04:45:12;;;;;;;20.55;7.53;;;7.30;99.90;;;;;;4754265;30;20056;-64
2022/05/09 04:47:38;;;;;;;20.85;8.02;;;8.30;99.90;;;;;;4754181;30;20092;-65
2022/05/09 04:50:05;;;;;;;21.48;7.45;;;9.10;99.90;;;;;;4754516;30;20048;-64
2022/05/09 04:52:31;;;;;;;21.35;7.47;;;10.10;99.90;;;;;;4754011;30;20082;-64
2022/05/09 04:54:58;;;;;;;21.60;7.65;;;10.40;99.90;;;;;;4752141;30;20104;-64
2022/05/09 04:57:24;;;;;;;20.35;7.50;;;10.80;99.90;;;;;;4754344;30;20052;-65
2022/05/09 04:59:49;;;;;;;20.95;7.05;;;11.80;99.90;;;;;;4754362;30;20155;-65
2022/05/09 05:02:16;;;;;;;21.05;6.47;;;11.90;99.90;;;;;;4736308;30;20122;-65
2022/05/09 05:04:42;;;;;;;18.90;7.00;;;;;;;;;;4752949;30;20131;-65
2022/05/09 05:07:08;;;;;;;25.30;7.80;;;13.20;99.90;;;;;;4752541;30;20416;-64
2022/05/09 05:09:35;;;;;;;21.08;6.97;;;13.20;99.90;;;;;;4738730;30;20068;-65
2022/05/09 05:12:01;;;;;;;25.75;7.68;;;12.70;99.90;;;;;;4770647;30;20083;-65
2022/05/09 05:14:27;;;;;;;21.13;6.95;;;13.20;99.90;;;;;;4753619;30;20152;-65
2022/05/09 05:16:59;;;;;;;21.73;6.30;;;;;;;;;;4770547;30;20159;-65
2022/05/09 05:19:25;;;;;;;19.08;6.78;;;;;;;;;;4770470;30;20056;-65
2022/05/09 05:21:51;;;;;;;21.10;6.20;;;;;;;;;;4769770;30;20083;-65
2022/05/09 05:24:17;;;;;;;22.80;6.57;;;16.20;99.90;;;;;;4753100;30;20511;-65
2022/05/09 05:26:43;;;;;;;22.73;6.57;;;16.30;99.90;;;;;;4769824;30;20056;-65
2022/05/09 05:29:09;;;;;;;22.25;6.40;;;16.40;99.90;;;;;;4769865;30;20055;-65
2022/05/09 05:31:35;;;;;;;22.00;6.28;;;;;;;;;;4769539;30;20054;-65
2022/05/09 05:34:02;;;;;;;20.67;6.70;;;;;;;;;;4770280;30;20059;-65
2022/05/09 05:36:28;;;;;;;20.60;6.38;;;17.70;93.80;;;;;;4769869;30;20515;-65
2022/05/09 05:38:53;;;;;;;22.92;6.20;;;17.70;91.60;;;;;;4769863;30;20056;-66
2022/05/09 05:41:19;;;;;;;19.13;6.25;;;17.80;84.20;;;;;;4754051;30;20101;-65
2022/05/09 05:43:46;;;;;;;20.13;6.32;;;17.80;90.10;;;;;;4756444;30;20060;-66
2022/05/09 05:46:12;;;;;;;31.20;6.00;;;18.90;88.40;;;;;;4752527;30;20413;-66
2022/05/09 05:48:38;;;;;;;27.08;6.18;;;18.70;86.10;;;;;;4752157;30;20064;-65
2022/05/09 05:51:04;;;;;;;25.55;6.25;;;19.00;83.50;;;;;;4753080;30;20048;-65
2022/05/09 05:53:30;;;;;;;20.38;6.15;;;;;;;;;;4753088;30;20508;-66
2022/05/09 05:55:55;;;;;;;22.40;6.28;;;19.30;82.00;;;;;;4753065;30;20257;-66
2022/05/09 05:58:23;;;;;;;18.52;5.85;;;;;;;;;;4752951;30;20063;-66
2022/05/09 06:00:49;;;;;;;19.20;6.07;;;19.70;80.80;;;;;;4752924;30;20114;-66
2022/05/09 06:03:15;;;;;;;22.52;5.68;;;;;;;;;;4752834;30;20056;-66
2022/05/09 06:05:41;;;;;;;18.33;6.20;;;20.50;78.30;;;;;;4752639;30;20052;-66
2022/05/09 06:08:08;;;;;;;24.27;6.32;;;20.10;76.20;;;;;;4769481;30;20139;-66
2022/05/09 06:10:34;;;;;;;26.10;6.40;;;20.10;74.80;;;;;;4770386;30;20059;-66
2022/05/09 06:13:05;;;;;;;22.63;6.38;;;19.80;58.50;;;;;;4770678;30;20424;-66
2022/05/09 06:15:32;;;;;;;28.75;6.65;;;19.90;74.50;;;;;;4770773;30;20043;-66
2022/05/09 06:18:04;;;;;;;25.85;6.30;;;20.30;57.70;;;;;;4770380;30;20061;-66
2022/05/09 06:20:32;;;;;;;25.70;6.07;;;20.50;73.60;;;;;;4754687;30;20135;-66
2022/05/09 06:22:59;;;;;;;24.92;6.20;;;20.60;71.80;;;;;;4754360;30;20570;-66
2022/05/09 06:25:27;;;;;;;25.08;6.38;;;21.00;70.60;;;;;;4770365;30;20047;-66
2022/05/09 06:27:53;;;;;;;24.25;6.30;;;21.20;70.00;;;;;;4770267;30;20114;-66
2022/05/09 06:30:21;;;;;;;21.02;5.55;;;21.90;69.70;;;;;;4770300;30;20126;-67
2022/05/09 06:32:48;;;;;;;22.23;6.28;;;21.80;60.70;;;;;;4770130;30;20051;-66
2022/05/09 06:35:20;;;;;;;24.67;6.55;;;22.20;66.40;;;;;;4770126;30;20083;-67
2022/05/09 06:37:47;;;;;;;19.67;6.20;;;22.40;66.70;;;;;;4770540;30;20110;-67
2022/05/09 06:40:13;;;;;;;25.17;5.90;;;22.30;61.40;;;;;;4770243;30;20442;-66
2022/05/09 06:42:39;;;;;;;20.60;6.30;;;22.10;66.00;;;;;;4770181;30;20056;-67
2022/05/09 06:45:07;;;;;;;28.83;6.53;;;22.70;65.10;;;;;;4754351;30;20099;-67
2022/05/09 06:47:33;;;;;;;18.50;5.82;;;;;;;;;;4739390;30;20095;-67
2022/05/09 06:50:04;;;;;;;23.10;6.10;;;23.70;48.10;;;;;;4770224;30;20443;-68
2022/05/09 06:52:29;;;;;;;17.45;6.30;;;24.10;61.50;;;;;;4770034;30;20048;-67
2022/05/09 06:54:55;;;;;;;21.60;6.05;;;24.20;61.20;;;;;;4769918;30;20059;-67
2022/05/09 06:57:21;;;;;;;19.30;5.88;;;23.70;60.50;;;;;;4769900;30;20056;-67
2022/05/09 06:59:47;;;;;;;18.17;5.97;;;;;;;;;;4769846;30;20052;-68
2022/05/09 07:02:14;;;;;;;18.60;6.20;;;24.80;59.90;;;;;;4753961;30;20087;-67
2022/05/09 07:04:40;;;;;;;16.58;5.95;;;24.50;58.90;;;;;;4753951;30;20098;-67
2022/05/09 07:07:06;;;;;;;21.33;6.65;;;25.90;57.30;;;;;;4739213;30;20062;-67
2022/05/09 07:09:32;;;;;;;22.00;5.97;;;;;;;;;;4753850;30;20135;-68
2022/05/09 07:11:57;;;;;;;14.43;5.93;;;25.10;58.30;;;;;;4769881;30;20511;-68
2022/05/09 07:14:23;;;;;;;17.40;5.88;;;25.50;51.20;;;;;;4769761;30;20083;-68
2022/05/09 07:16:49;;;;;;;18.70;5.53;;;;;;;;;;4769850;30;20412;-69
2022/05/09 07:19:16;;;;;;;22.27;6.10;;;;;;;;;;4770072;30;20091;-68
2022/05/09 07:21:42;;;;;;;21.02;6.68;;;25.60;50.20;;;;;;4754067;30;20556;-68
2022/05/09 07:24:08;;;;;;;22.50;6.28;;;25.30;58.80;;;;;;4769021;30;20131;-68
2022/05/09 07:26:36;;;;;;;23.83;6.15;;;24.40;59.30;;;;;;4769864;30;20155;-68
2022/05/09 07:29:02;;;;;;;20.95;6.18;;;24.10;45.80;;;;;;4769545;30;20052;-68
2022/05/09 07:31:29;;;;;;;21.35;6.75;;;23.90;62.10;;;;;;4753626;30;20574;-68
2022/05/09 07:33:54;;;;;;;27.85;5.93;;;22.80;61.60;;;;;;4769509;30;20058;-68
2022/05/09 07:36:21;;;;;;;18.95;5.78;;;23.60;63.40;;;;;;4769567;30;20055;-68
2022/05/09 07:38:46;;;;;;;18.75;5.63;;;22.10;64.80;;;;;;4773096;30;20056;-68
2022/05/09 07:41:12;;;;;;;16.58;5.57;;;22.30;65.70;;;;;;4772840;30;20048;-67
2022/05/09 07:43:38;;;;;;;20.30;6.05;;;22.40;67.00;;;;;;4773042;30;20112;-68
2022/05/09 07:46:04;;;;;;;25.20;5.93;;;22.30;66.40;;;;;;4773241;30;20044;-69
2022/05/09 07:48:30;;;;;;;21.60;5.88;;;22.60;61.80;;;;;;4772830;30;20543;-70
2022/05/09 07:50:58;;;;;;;21.02;6.03;;;21.60;52.40;;;;;;4772697;30;20145;-70
2022/05/09 07:53:32;;;;;;;26.13;5.80;;;22.40;65.20;;;;;;4772753;30;20074;-69
2022/05/09 07:55:58;;;;;;;24.80;5.68;;;23.00;66.20;;;;;;4773210;30;20105;-70
2022/05/09 07:58:24;;;;;;;17.05;6.22;;;;;;;;;;4756735;30;20083;-70
2022/05/09 08:00:50;;;;;;;19.85;5.95;;;;;;;;;;4756702;30;20091;-69
2022/05/09 08:03:22;;;;;;;19.17;5.65;;;21.10;67.10;;;;;;4756676;30;20096;-69
2022/05/09 08:05:49;;;;;;;21.50;6.18;;;20.50;67.00;;;;;;4770700;30;20121;-67
2022/05/09 08:08:15;;;;;;;15.77;5.80;;;;;;;;;;4770121;30;20047;-68
2022/05/09 08:10:42;;;;;;;20.10;5.40;;;20.20;69.00;;;;;;4772131;30;20446;-68
2022/05/09 08:13:08;;;;;;;15.27;5.32;;;20.20;62.50;;;;;;4772388;30;20055;-69
2022/05/09 08:15:35;;;;;;;24.30;5.88;;;20.40;69.50;;;;;;4771099;30;20079;-69
2022/05/09 08:18:02;;;;;;;25.73;6.07;;;20.90;68.80;;;;;;4772183;30;20055;-68
2022/05/09 08:20:30;;;;;;;14.52;5.63;;;22.10;68.80;;;;;;4772526;30;20052;-68
2022/05/09 08:22:59;;;;;;;17.58;5.30;;;21.40;53.00;;;;;;4756579;30;20129;-68
2022/05/09 08:25:26;;;;;;;14.77;5.45;;;21.00;67.60;;;;;;4772294;30;20119;-68
2022/05/09 08:27:51;;;;;;;18.17;5.05;;;21.30;67.30;;;;;;4772409;30;20505;-68
2022/05/09 08:30:18;;;;;;;14.43;5.30;;;20.80;66.50;;;;;;4772179;30;20501;-69
2022/05/09 08:32:47;;;;;;;15.60;5.32;;;;;;;;;;4772111;30;20048;-69
2022/05/09 08:35:13;;;;;;;19.27;5.20;;;;;;;;;;4772133;30;20052;-69
2022/05/09 08:37:39;;;;;;;21.00;5.82;;;22.70;65.90;;;;;;4771983;30;20393;-69
2022/05/09 08:40:06;;;;;;;16.02;4.82;;;22.80;64.30;;;;;;4756122;30;20134;-69
2022/05/09 08:42:41;;;;;;;16.17;5.47;;;22.60;63.30;;;;;;4772210;30;20055;-69
2022/05/09 08:45:26;;;;;;;13.65;5.03;;;22.30;50.60;;;;;;4771796;30;20504;-69
2022/05/09 08:48:47;;;;;;;15.90;4.90;;;22.10;63.20;;;;;;4771300;30;20052;-69
2022/05/09 08:51:30;;;;;;;17.30;4.70;;;22.30;62.40;;;;;;4699500;30;20049;-69
2022/05/09 08:54:02;;;;;;;17.38;4.68;;;22.70;62.60;;;;;;4699620;30;20132;-69
2022/05/09 08:56:28;;;;;;;17.55;5.30;;;;;;;;;;4699249;30;20069;-69
2022/05/09 08:59:02;;;;;;;14.20;4.22;;;23.00;49.00;;;;;;4699347;30;20430;-69
2022/05/09 09:01:49;;;;;;;18.95;5.20;;;23.10;48.20;;;;;;4699434;30;20153;-69
2022/05/09 09:04:23;;;;;;;18.70;4.40;;;21.90;59.30;;;;;;4699219;30;20057;-70
2022/05/09 09:07:24;;;;;;;18.23;4.57;;;22.50;47.90;;;;;;4699266;30;20061;-70
2022/05/09 09:10:12;;;;;;;16.08;4.50;;;20.90;47.20;;;;;;4667589;30;20062;-71
2022/05/09 09:13:03;;;;;;;21.77;4.35;;;22.70;58.80;;;;;;4681977;30;20060;-71
2022/05/09 09:15:42;;;;;;;24.77;4.85;;;21.80;59.60;;;;;;4682193;30;20054;-71
2022/05/09 09:18:19;;;;;;;14.02;4.05;;;22.60;48.00;;;;;;4682004;30;20130;-71
2022/05/09 09:21:05;;;;;;;12.65;3.72;;;22.70;58.70;;;;;;4681990;30;20114;-70
2022/05/09 09:23:52;;;;;;;14.73;4.15;;;23.00;59.50;;;;;;4681937;30;20062;-70
2022/05/09 09:26:26;;;;;;;13.07;3.55;;;23.20;58.20;;;;;;4735151;30;20056;-70
2022/05/09 09:29:06;;;;;;;18.17;4.10;;;23.00;59.40;;;;;;4783209;30;20074;-70
2022/05/09 09:31:36;;;;;;;14.18;4.10;;;23.00;51.90;;;;;;4773182;30;20404;-71
2022/05/09 09:34:23;;;;;;;13.20;3.97;;;22.70;58.80;;;;;;4787587;30;20051;-71
2022/05/09 09:36:58;;;;;;;12.07;3.60;;;22.80;58.70;;;;;;4773093;30;20181;-70
2022/05/09 09:39:26;;;;;;;12.80;3.38;;;23.20;58.80;;;;;;4789020;30;20393;-70
2022/05/09 09:41:52;;;;;;;9.15;3.35;;;22.30;58.10;;;;;;4789083;30;20047;-70
2022/05/09 09:44:21;;;;;;;11.50;3.53;;;22.70;46.00;;;;;;4788819;30;20412;-70
2022/05/09 09:47:09;;;;;;;13.35;3.40;;;22.70;46.50;;;;;;4788815;30;20134;-70
2022/05/09 09:49:41;;;;;;;11.27;3.67;;;22.60;57.80;;;;;;4788927;30;20054;-70
2022/05/09 09:52:16;;;;;;;13.20;3.25;;;22.50;58.00;;;;;;4788783;30;20055;-70
2022/05/09 09:54:49;;;;;;;11.60;3.42;;;22.60;46.10;;;;;;4772559;30;20059;-69
2022/05/09 09:57:28;;;;;;;11.63;3.30;;;21.60;57.50;;;;;;4772536;30;20436;-70
2022/05/09 09:59:55;;;;;;;12.82;3.38;;;22.40;58.60;;;;;;4772060;30;20055;-70
2022/05/09 10:02:30;;;;;;;13.13;3.70;;;22.50;57.70;;;;;;4788502;30;20090;-70
2022/05/09 10:04:57;;;;;;;12.60;3.40;;;22.40;58.60;;;;;;4788576;30;20066;-69
2022/05/09 10:07:28;;;;;;;15.90;3.70;;;22.50;58.40;;;;;;4788327;30;20086;-70
2022/05/09 10:10:15;;;;;;;25.88;4.40;;;22.70;57.70;;;;;;4788145;30;20389;-70
2022/05/09 10:12:44;;;;;;;11.48;3.70;;;22.60;45.60;;;;;;4788257;30;20059;-69
2022/05/09 10:15:35;;;;;;;12.65;3.47;;;22.60;45.60;;;;;;4788431;30;20059;-70
2022/05/09 10:18:18;;;;;;;14.18;3.25;;;22.70;57.80;;;;;;4788258;30;20055;-69
2022/05/09 10:20:44;;;;;;;14.88;3.58;;;22.80;57.40;;;;;;4788235;30;20063;-68
2022/05/09 10:26:29;;;;;;;10.23;3.55;;;22.50;45.80;;;;;;4788454;30;20051;-69
2022/05/09 10:28:59;;;;;;;11.85;3.08;;;23.10;57.90;;;;;;4787930;30;20100;-69
2022/05/09 10:31:42;;;;;;;11.38;3.42;;;22.70;57.40;;;;;;4788045;30;20112;-69
2022/05/09 10:34:18;;;;;;;10.23;3.30;;;23.00;57.80;;;;;;4788242;30;20086;-69
2022/05/09 10:36:52;;;;;;;11.05;3.70;;;22.90;57.90;;;;;;4788039;30;20059;-69
2022/05/09 10:39:20;;;;;;;7.63;3.38;;;22.90;57.80;;;;;;4788291;30;20093;-70
2022/05/09 10:41:51;;;;;;;9.68;3.63;;;22.40;56.70;;;;;;4788064;30;20433;-69
2022/05/09 10:44:32;;;;;;;11.55;3.10;;;22.00;55.80;;;;;;4787907;30;20087;-68
2022/05/09 10:47:08;;;;;;;7.63;3.05;;;22.80;44.80;;;;;;4772025;30;20047;-68
2022/05/09 10:49:46;;;;;;;10.15;3.25;;;23.60;57.50;;;;;;4788125;30;20127;-69
2022/05/09 10:52:42;;;;;;;9.85;3.03;;;22.90;57.70;;;;;;4788189;30;20059;-69
2022/05/09 10:55:24;;;;;;;10.77;3.22;;;23.20;45.60;;;;;;4787651;30;20059;-69
2022/05/09 10:58:07;;;;;;;12.45;3.45;;;23.10;53.20;;;;;;4787860;30;20063;-69
2022/05/09 11:00:38;;;;;;;12.55;3.38;;;23.30;45.90;;;;;;4771857;30;20066;-69
2022/05/09 11:03:27;;;;;;;9.65;3.00;;;23.30;57.70;;;;;;4787563;30;20408;-69
2022/05/09 11:06:17;;;;;;;13.02;3.33;;;23.40;56.70;;;;;;4785182;30;20051;-69
2022/05/09 11:08:46;;;;;;;10.70;3.00;;;23.70;49.50;;;;;;4776044;30;20079;-69
2022/05/09 11:11:27;;;;;;;8.50;3.10;;;23.50;45.30;;;;;;4769373;30;20089;-69
2022/05/09 11:14:21;;;;;;;11.57;3.22;;;23.60;45.40;;;;;;4773350;30;20587;-69
2022/05/09 11:17:18;;;;;;;8.45;3.10;;;23.70;45.50;;;;;;4773566;30;20087;-69
2022/05/09 11:19:44;;;;;;;8.95;3.40;;;;;;;;;;4773258;30;20060;-69
2022/05/09 11:22:31;;;;;;;14.82;3.35;;;23.60;46.80;;;;;;4773457;30;20147;-69
2022/05/09 11:25:36;;;;;;;12.68;3.92;;;24.60;57.20;;;;;;4773248;30;20523;-69
2022/05/09 11:28:29;;;;;;;20.77;4.00;;;24.20;56.80;;;;;;4718222;30;20565;-69
2022/05/09 11:31:08;;;;;;;436.25;18.63;;;24.10;46.00;;;;;;4718379;30;20053;-69
2022/05/09 11:33:58;;;;;;;16.23;3.30;;;24.20;45.80;;;;;;4718391;30;20057;-70
2022/05/09 11:37:02;;;;;;;9.32;3.40;;;24.20;45.60;;;;;;4704025;30;20057;-69
2022/05/09 11:39:30;;;;;;;12.05;3.08;;;;;;;;;;4717964;30;20109;-69
2022/05/09 11:45:45;;;;;;;14.63;3.70;;;24.30;56.90;;;;;;4717919;30;20540;-69
2022/05/09 11:48:39;;;;;;;14.35;3.60;;;25.00;56.40;;;;;;4717919;30;20064;-70
2022/05/09 11:51:28;;;;;;;13.50;3.80;;;24.40;56.40;;;;;;4718011;30;20395;-70
2022/05/09 11:54:01;;;;;;;9.95;3.35;;;24.70;45.40;;;;;;4717893;30;20124;-70
2022/05/09 11:56:31;;;;;;;17.02;3.53;;;24.70;44.70;;;;;;4703590;30;20065;-70
2022/05/09 11:58:58;;;;;;;13.48;3.45;;;25.00;54.80;;;;;;4717741;30;20140;-69
2022/05/09 12:01:53;;;;;;;11.10;3.60;;;23.90;54.60;;;;;;4703161;30;20057;-70
2022/05/09 12:04:40;;;;;;;10.13;3.15;;;24.90;44.20;;;;;;4742175;30;20516;-70
2022/05/09 12:07:21;;;;;;;9.43;3.20;;;24.90;44.20;;;;;;4772495;30;20060;-70
2022/05/09 12:10:17;;;;;;;15.20;3.47;;;25.00;54.00;;;;;;4754604;30;20064;-70
2022/05/09 12:12:49;;;;;;;13.63;3.45;;;25.00;54.50;;;;;;4754827;30;20494;-70
2022/05/09 12:15:14;;;;;;;11.52;3.03;;;24.60;54.50;;;;;;4739140;30;20118;-69
2022/05/09 12:17:45;;;;;;;7.45;3.05;;;24.50;44.60;;;;;;4754647;30;20063;-70
2022/05/09 12:20:36;;;;;;;11.10;3.30;;;25.40;54.10;;;;;;4754785;30;20071;-70
2022/05/09 12:23:04;;;;;;;10.00;2.92;;;25.70;50.00;;;;;;4738871;30;20125;-70
2022/05/09 12:25:36;;;;;;;11.10;2.78;;;25.40;50.60;;;;;;4738697;30;20064;-69
2022/05/09 12:28:04;;;;;;;9.80;2.75;;;25.50;53.50;;;;;;4738553;30;20143;-69
2022/05/09 12:30:54;;;;;;;19.52;3.85;;;25.40;50.10;;;;;;4754491;30;20054;-68
2022/05/09 12:33:45;;;;;;;10.63;3.65;;;25.30;49.30;;;;;;4754767;30;20497;-70
2022/05/09 12:36:22;;;;;;;13.52;3.15;;;25.50;53.90;;;;;;4754527;30;20055;-70
2022/05/09 12:38:51;;;;;;;8.93;3.17;;;25.50;50.30;;;;;;4738717;30;20110;-70
2022/05/09 12:41:18;;;;;;;7.85;3.13;;;25.60;43.30;;;;;;4738560;30;20052;-69
2022/05/09 12:43:50;;;;;;;11.02;3.15;;;24.90;52.90;;;;;;4753003;30;20061;-69
2022/05/09 12:47:23;;;;;;;16.30;2.80;;;26.10;53.30;;;;;;4754411;30;20060;-69
2022/05/09 12:50:05;;;;;;;9.52;2.85;;;25.80;52.30;;;;;;4712971;30;20053;-68
2022/05/09 12:52:37;;;;;;;12.30;2.92;;;26.30;52.90;;;;;;4716905;30;20534;-68
2022/05/09 12:57:48;;;;;;;9.18;3.25;;;26.20;52.00;;;;;;4716970;30;20518;-69
2022/05/09 13:00:17;;;;;;;10.18;3.10;;;26.50;52.10;;;;;;4702245;30;20140;-69
2022/05/09 13:02:43;;;;;;;7.40;2.80;;;;;;;;;;4716735;30;20124;-68
2022/05/09 13:05:12;;;;;;;7.25;2.97;;;26.40;42.20;;;;;;4716719;30;20057;-68
2022/05/09 13:07:57;;;;;;;11.60;2.95;;;26.40;42.20;;;;;;4716507;30;20072;-68
2022/05/09 13:10:23;;;;;;;10.52;3.17;;;26.40;52.80;;;;;;4724308;30;20064;-68
2022/05/09 13:12:57;;;;;;;8.98;3.10;;;26.80;52.00;;;;;;4719314;30;20053;-69
2022/05/09 13:15:23;;;;;;;5.93;2.65;;;26.50;41.70;;;;;;4733730;30;20053;-68
2022/05/09 13:17:58;;;;;;;8.25;2.83;;;26.60;51.30;;;;;;4733893;30;20417;-69
2022/05/09 13:20:27;;;;;;;7.88;2.70;;;26.50;51.10;;;;;;4746832;30;20064;-69
2022/05/09 13:22:56;;;;;;;12.00;2.95;;;27.40;51.40;;;;;;4753591;30;20524;-68
2022/05/09 13:25:36;;;;;;;17.17;2.72;;;27.10;50.20;;;;;;4753561;30;20056;-68
2022/05/09 13:28:11;;;;;;;6.22;2.60;;;26.90;40.20;;;;;;4753695;30;20452;-67
2022/05/09 13:30:55;;;;;;;18.40;3.40;;;26.60;49.60;;;;;;4752413;30;20060;-68